Terminal Aerodrome Forecast
Issued by NWS

Home | Current Version | Previous Version | Text Only | Print | Product List | Glossary On
Versions: 1 2 3 4 5 6 7 8 9 10 11 12 13 14
000
FTUS46 KLOX 221122
TAFPRB
TAF
KPRB 221122Z 2212/2312 VRB03KT P6SM SKC
     FM222100 29014G22KT P6SM VCSH SCT060
     FM230200 30012KT P6SM SCT025 BKN050 PROB30 2304/2308 -SHRA
     FM231000 30006KT P6SM SCT060=

USA.gov is the U.S. government's official web portal to all federal, state and local government web resources and services.